x

Frying Pan Shoals, Nc Buoy (41013) Wave Buoy

2:50am - Sat 22nd Nov 2014 All times are EST. -5 hours from GMT.

  • Sig Wave height 3.6ft
  • Swell Direction
  • Peak Period 5s
  • Average Period 4s
  • Wind
    16mph, 20mph gusts
  • Sea Temp 63°f
  • Air Temp 53°f
  • Sea Pressure 1033mb
  • Frying Pan Shoals, Nc Buoy
  • Frying Pan Shoals, Nc Buoy

More Historic Weather Station data

Upgrade to MSW Pro to gain access to the past 30 days of data for over 8000 Wavebouys and Weather Stations around the globe.

Join Pro

Comparision Forecast

View Surf forecast
   
Sat 11/22 2:50am 3.5ft 5s 4s 16 20 mph 1033mb 63f 53f
1:50am 4ft 5s 4s 16 20 mph 1033mb 62f 52f
12:50am 3.5ft 5s 4s 18 22 mph 1033mb 62f 52f
Fri 11/21 11:50pm 3.5ft 5s 4s 18 25 mph 1033.1mb 62f 52f
10:50pm 3.5ft 5s 4s 18 20 mph 1033.1mb 63f 53f
9:50pm 3.5ft 5s 4s 20 25 mph 1032.8mb 63f 53f
8:50pm 3.5ft 5s 4s 18 22 mph 1032.3mb 64f 54f
7:50pm 3.5ft 6s 4s 18 20 mph 1032.1mb 64f 55f
6:50pm 3.5ft 5s 4s 18 22 mph 1031.8mb 64f 55f
5:50pm 3.5ft 5s 4s 16 20 mph 1031.3mb 64f 54f
4:50pm 3.5ft 5s 4s 16 18 mph 1030.9mb 64f 54f
3:50pm 3.5ft 6s 4s 18 22 mph 1029.9mb 64f 53f
2:50pm 4ft 5s 4s 18 22 mph 1029.6mb 64f 53f
1:50pm 3.5ft 5s 4s 18 22 mph 1029.1mb 63f 52f
12:50pm 4ft 5s 4s 18 20 mph 1029.1mb 63f 53f
11:50am 3.5ft 5s 4s 20 25 mph 1029.3mb 64f 53f
10:50am 4ft 4s 4s 20 25 mph 1029.4mb 64f 54f
9:50am 4.5ft 4s 4s 18 22 mph 1028.7mb 65f 55f
8:50am 4.5ft 5s 4s 18 22 mph 1027.8mb 65f 55f
7:50am 5ft 6s 4s 22 25 mph 1026.7mb 65f 55f
6:50am 5ft 6s 4s 22 27 mph 1025.4mb 66f 58f
5:50am 5ft 6s 5s 20 25 mph 1024.7mb 65f 58f
4:50am 5ft 6s 5s 22 27 mph 1023.9mb 65f 59f
3:50am 5.5ft 6s 5s 22 27 mph 1023.9mb 65f 60f
2:50am 6ft 6s 5s 25 29 mph 1023.9mb 64f 61f
1:50am 6ft 6s 5s 25 31 mph 1023.3mb 64f 62f
12:50am 6.5ft 6s 5s 25 31 mph 1023mb 64f 62f
Thu 11/20 11:50pm 6ft 6s 5s 27 31 mph 1023.1mb 64f 62f
10:50pm 6ft 6s 5s 25 29 mph 1023mb 64f 62f
9:50pm 6ft 6s 5s 25 29 mph 1022.7mb 64f 62f
8:50pm 5ft 5s 5s 25 29 mph 1022.3mb 65f 62f
7:50pm 6ft 6s 5s 25 29 mph 1021.7mb 65f 61f
6:50pm 5ft 5s 4s 25 31 mph 1021.2mb 65f 61f
5:50pm 5ft 5s 4s 25 29 mph 1020.5mb 65f 60f
4:50pm 5ft 5s 4s 25 29 mph 1020.5mb 65f 60f
3:50pm 4.5ft 5s 4s 22 29 mph 1020.6mb 65f 59f
2:50pm 4.5ft 5s 4s 22 27 mph 1020.5mb 65f 59f
1:50pm 4.5ft 5s 4s 22 27 mph 1021mb 65f 58f
12:50pm 4.5ft 5s 4s 20 25 mph 1022.1mb 65f 57f
11:50am 3.5ft 5s 4s 20 25 mph 1023.8mb 65f 55f
10:50am 3.5ft 5s 4s 18 25 mph 1024.9mb 65f 55f
9:50am 4ft 5s 4s 18 22 mph 1025.5mb 65f 54f
8:50am 4ft 5s 4s 18 22 mph 1025.1mb 66f 53f
7:50am 4.5ft 5s 4s 20 22 mph 1024.6mb 66f 53f
6:50am 4.5ft 5s 4s 22 27 mph 1024.1mb 66f 53f
5:50am 3.5ft 4s 4s 20 27 mph 1024.2mb 67f 52f
4:50am 3.5ft 4s 4s 20 25 mph 1024.2mb 67f 53f
3:50am 3ft 4s 4s 18 22 mph 1024.3mb 67f 54f
2:50am 2.5ft 3s 4s 18 25 mph 1024.4mb 68f 56f
1:50am 2ft 8s 4s 18 22 mph 1024.6mb 67f 56f
12:50am 2ft 8s 5s 11 16 mph 1025.3mb 67f 53f
Wed 11/19 11:50pm 2ft 8s 6s 11 13 mph 1025.8mb 67f 52f
10:50pm 2ft 8s 6s 7 9 mph 1026.7mb 66f 50f
9:50pm 2.5ft 8s 5s 2 4 mph 1027mb 66f 50f
8:50pm 2.5ft 8s 5s 2 4 mph 1026.9mb 66f 49f
7:50pm 2.5ft 8s 5s 2
mph
1027.3mb 66f 47f
6:50pm 2.5ft 8s 5s 2 4 mph 1028mb 66f 47f
5:50pm 2.5ft 8s 5s 2 4 mph 1027.5mb 66f 46f
4:50pm 2.5ft 8s 5s 2 7 mph 1027.8mb 66f 45f
3:50pm 2.5ft 4s 5s 2 7 mph 1028.1mb 66f 45f
2:50pm 2.5ft 5s 5s 4 11 mph 1028.4mb 66f 44f
1:50pm 2.5ft 8s 5s 7 11 mph 1029mb 66f 43f
12:50pm 2.5ft 8s 4s 9 13 mph 1029.6mb 66f 42f
11:50am 2.5ft 4s 4s 9 11 mph 1030.4mb 65f 42f
10:50am 2.5ft 4s 4s 11 16 mph 1031mb 65f 42f
9:50am 2.5ft 4s 4s 13 18 mph 1031mb 65f 42f
8:50am 3ft 4s 4s 13 16 mph 1030.5mb 65f 42f
7:50am 3ft 4s 4s 13 20 mph 1030mb 65f 42f
6:50am 3.5ft 4s 4s 13 20 mph 1029.2mb 66f 42f
5:50am 3.5ft 4s 4s 16 22 mph 1028.5mb 66f 41f
4:50am 3.5ft 5s 4s 16 20 mph 1027.7mb 67f 42f
3:50am 3.5ft 5s 4s 18 22 mph 1027.5mb 66f 42f
2:50am 4ft 5s 4s 20 25 mph 1027.4mb 66f 41f
1:50am 4.5ft 4s 4s 20 27 mph 1027.5mb 66f 41f
12:50am 4.5ft 5s 4s 20 27 mph 1027.4mb 65f 42f
Tue 11/18 11:50pm 4.5ft 5s 4s 22 29 mph 1027mb 65f 42f
10:50pm 4.5ft 5s 4s 22 27 mph 1027.1mb 66f 42f
9:50pm 4.5ft 5s 4s 20 25 mph 1026.6mb 66f 42f
8:50pm 4.5ft 4s 4s 22 27 mph 1026.1mb 67f 43f
7:50pm 4.5ft 5s 4s 20 29 mph 1025.2mb 67f 45f
6:50pm 4.5ft 6s 4s 22 27 mph 1024.1mb 68f 46f
5:50pm 3.5ft 6s 4s 20 25 mph 1022.6mb 68f 47f
4:50pm 4.5ft 8s 5s 16 20 mph 1021.9mb 68f 47f
3:50pm 4.5ft 7s 5s 16 20 mph 1020.8mb 68f 46f
2:50pm 4.5ft 7s 5s 16 22 mph 1020mb 68f 46f
1:50pm 4.5ft 8s 5s 16 20 mph 1019.8mb 68f 45f
12:50pm 5.5ft 7s 5s 16 22 mph 1020.1mb 68f 45f
11:50am 5.5ft 7s 5s 16 25 mph 1020.4mb 68f 44f
10:50am 6ft 6s 5s 18 22 mph 1021.3mb 68f 45f
9:50am 6ft 7s 5s 18 22 mph 1020.7mb 68f 45f